Airfield :
LOGIN :

Register | Disclaimer

   EN    FR    IT 

 










Legend :    VFR   Marginal VFR   IFR   Intensive IFR   Very Intensive IFR
Visi :
Ceiling :
>= 8 km
>= 3000ft
5 to 8 km
1000 to 3000 ft
1500m to 5 km
500 to 1000 ft
800 to 1500m
200 to 500 ft
< 800m
< 200 ft
Symbols :   Thunderstorms  Fog  Heavy snow  Heavy precipitations  Wind > 20 kt
SIGMETs :     Misc.  Thunderstorms  Icing  Turbulence  Mountain Waves  Volcanic Ashes







- Airport Elevation : 72 ft
- IATA code : UDE


EHVK - Volkel Airbase

CURRENT METAR :
  • 250655Z AUTO 29009KT 260V350 9999 FEW024 SCT028 06/02 Q1021 BLU

EXPIRED METARs :
  • 250640Z AUTO 29008KT 250V330 9999 SCT020 BKN025 OVC033 06/03 Q1021 WHT
  • 250636Z AUTO 28009KT 250V320 9999 SCT022 BKN025 BKN031 06/03 Q1021 WHT
  • 250628Z AUTO 28008KT 240V320 9999 SCT023 BKN029 BKN033 06/03 Q1021 WHT
  • 250555Z AUTO 27007KT 250V310 9999 FEW026 SCT042 BKN047 05/03 Q1021 BLU
  • 250526Z AUTO 27006KT 9999 FEW023 BKN027 BKN039 05/03 Q1020 BLU
  • 250525Z AUTO 28007KT 250V310 9999 SCT023 BKN027 BKN039 05/03 Q1020 WHT
  • 250455Z AUTO 27007KT 240V310 9999 FEW023 05/03 Q1020 BLU
  • 250425Z AUTO 28006KT 240V310 9999 NCD 05/03 Q1020 BLU

TAF TAF EHVK
Valid from the 25 at 06:00 until the 25 at 18:00 UTC


250552Z 2506/2518 30012KT 9999 FEW025
PROB40
TEMPO 2506/2508 FEW018CB BKN020
BECMG 2507/2509 31017G30KT
TEMPO 2508/2516 33016G33KT SCT020CB BKN025
BECMG 2509/2511 33017G30KT
PROB40
TEMPO 2509/2514 33018G36KT 4000 SHRAGS TSRAGS FEW012 SCT018CB BKN020
BECMG 2516/2518 33015G25KT
No reported NOTAMs for that airfield.



MET'MAP, your aeronautical weather chart ! - Copyright ORBIFLY December 2007 - Disclaimer

ORBIFLY MET'MAP TEAM :

Programming & Development : Alexandra Zaïnal
Concept & Development : Baudouin d'Aumeries
Co-Development & Prog : Marc-Olivier Méhu
Technical & hardware support : Manuel Goepfert

Contact : metmap@orbifly.com




SOURCES & CREDITS :

   NOAA